createdAt,value
2024-01-06T00:02:00.627Z,98102.88
2024-01-06T00:04:27.167Z,98101.19
2024-01-06T00:06:53.498Z,98107.06
2024-01-06T00:09:19.707Z,98113.06
2024-01-06T00:11:45.909Z,98113.22
2024-01-06T00:14:12.071Z,98115.00
2024-01-06T00:16:38.226Z,98120.38
2024-01-06T00:19:04.508Z,98124.09
2024-01-06T00:21:30.912Z,98120.19
2024-01-06T00:23:57.100Z,98124.16
2024-01-06T00:26:23.288Z,98127.09
2024-01-06T00:28:49.481Z,98126.31
2024-01-06T00:31:15.997Z,98121.22
2024-01-06T00:33:42.294Z,98124.97
2024-01-06T00:36:08.590Z,98118.88
2024-01-06T00:38:34.770Z,98123.13
2024-01-06T00:41:01.207Z,98128.38
2024-01-06T00:43:27.650Z,98121.34
2024-01-06T00:45:54.091Z,98119.75
2024-01-06T00:48:20.688Z,98135.91
2024-01-06T00:50:46.969Z,98132.81
2024-01-06T00:53:13.239Z,98136.53
2024-01-06T00:55:39.419Z,98135.50
2024-01-06T00:58:05.824Z,98138.22
2024-01-06T01:00:32.104Z,98141.34
2024-01-06T01:02:58.320Z,98133.03
2024-01-06T01:05:24.494Z,98140.06
2024-01-06T01:07:50.709Z,98139.25
2024-01-06T01:10:17.171Z,98142.69
2024-01-06T01:12:43.382Z,98138.22
2024-01-06T01:15:09.643Z,98145.78
2024-01-06T01:17:35.942Z,98146.25
2024-01-06T01:20:02.386Z,98150.34
2024-01-06T01:22:28.584Z,98153.75
2024-01-06T01:24:54.767Z,98152.75
2024-01-06T01:27:20.944Z,98154.25
2024-01-06T01:29:47.140Z,98156.88
2024-01-06T01:32:13.638Z,98158.97
2024-01-06T01:34:39.873Z,98159.00
2024-01-06T01:37:06.133Z,98161.28
2024-01-06T01:39:32.433Z,98160.81
2024-01-06T01:41:58.574Z,98156.72
2024-01-06T01:44:24.781Z,98163.91
2024-01-06T01:46:50.958Z,98168.16
2024-01-06T01:49:17.699Z,98177.97
2024-01-06T01:51:44.075Z,98168.97
2024-01-06T01:54:10.311Z,98169.13
2024-01-06T01:56:36.522Z,98171.75
2024-01-06T01:59:02.812Z,98178.13
2024-01-06T02:01:29.289Z,98178.44
2024-01-06T02:03:55.551Z,98175.19
2024-01-06T02:06:21.804Z,98178.94
2024-01-06T02:08:48.027Z,98179.59
2024-01-06T02:11:14.470Z,98176.34
2024-01-06T02:13:40.757Z,98179.75
2024-01-06T02:16:06.971Z,98188.41
2024-01-06T02:18:33.502Z,98182.34
2024-01-06T02:20:59.864Z,98196.72
2024-01-06T02:23:26.073Z,98192.16
2024-01-06T02:25:52.254Z,98194.31
2024-01-06T02:28:18.498Z,98196.25
2024-01-06T02:30:44.830Z,98194.97
2024-01-06T02:33:11.410Z,98200.22
2024-01-06T02:35:37.626Z,98202.97
2024-01-06T02:38:04.023Z,98205.91
2024-01-06T02:40:30.267Z,98210.84
2024-01-06T02:42:56.460Z,98207.56
2024-01-06T02:45:22.967Z,98205.59
2024-01-06T02:47:49.305Z,98216.06
2024-01-06T02:50:15.794Z,98211.31
2024-01-06T02:52:41.965Z,98229.28
2024-01-06T02:55:08.383Z,98222.59
2024-01-06T02:57:34.572Z,98220.47
2024-01-06T03:00:00.736Z,98225.88
2024-01-06T03:02:27.153Z,98236.31
2024-01-06T03:04:53.584Z,98229.78
2024-01-06T03:07:19.981Z,98231.56
2024-01-06T03:09:46.504Z,98227.97
2024-01-06T03:12:12.817Z,98226.00
2024-01-06T03:14:38.996Z,98240.03
2024-01-06T03:17:05.420Z,98243.63
2024-01-06T03:19:32.000Z,98244.78
2024-01-06T03:21:58.543Z,98251.66
2024-01-06T03:24:24.963Z,98251.00
2024-01-06T03:26:51.148Z,98251.81
2024-01-06T03:29:17.322Z,98254.09
2024-01-06T03:31:43.663Z,98261.94
2024-01-06T03:34:09.986Z,98262.59
2024-01-06T03:36:36.257Z,98268.28
2024-01-06T03:39:02.424Z,98270.75
2024-01-06T03:41:28.581Z,98266.03
2024-01-06T03:43:54.777Z,98272.84
2024-01-06T03:46:21.166Z,98264.22
2024-01-06T03:48:47.491Z,98264.22
2024-01-06T03:51:13.823Z,98261.94
2024-01-06T03:53:40.014Z,98272.56
2024-01-06T03:56:06.360Z,98269.44
2024-01-06T03:58:32.621Z,98277.28
2024-01-06T04:00:58.843Z,98283.50
2024-01-06T04:03:25.038Z,98275.19
2024-01-06T04:05:51.512Z,98277.63
2024-01-06T04:08:17.987Z,98273.06
2024-01-06T04:10:44.207Z,98278.13
2024-01-06T04:13:10.611Z,98282.84
2024-01-06T04:15:36.885Z,98284.31
2024-01-06T04:18:03.201Z,98276.97
2024-01-06T04:20:29.403Z,98281.22
2024-01-06T04:22:55.554Z,98274.06
2024-01-06T04:25:21.695Z,98278.44
2024-01-06T04:27:47.940Z,98276.00
2024-01-06T04:30:14.559Z,98279.41
2024-01-06T04:32:41.019Z,98288.25
2024-01-06T04:35:07.223Z,98286.13
2024-01-06T04:37:33.637Z,98289.06
2024-01-06T04:40:00.118Z,98290.22
2024-01-06T04:42:26.548Z,98285.97
2024-01-06T04:44:52.746Z,98290.03
2024-01-06T04:47:18.893Z,98298.22
2024-01-06T04:49:45.144Z,98300.81
2024-01-06T04:52:11.395Z,98315.38
2024-01-06T04:54:37.764Z,98313.53
2024-01-06T04:57:04.088Z,98315.19
2024-01-06T04:59:30.259Z,98325.22
2024-01-06T05:01:56.508Z,98331.09
2024-01-06T05:04:22.972Z,98339.59
2024-01-06T05:06:49.295Z,98341.38
2024-01-06T05:09:15.589Z,98339.31
2024-01-06T05:11:42.031Z,98343.63
2024-01-06T05:14:08.204Z,98348.59
2024-01-06T05:16:34.630Z,98351.44
2024-01-06T05:19:00.938Z,98350.00
2024-01-06T05:21:27.451Z,98358.34
2024-01-06T05:23:53.906Z,98358.13
2024-01-06T05:26:20.313Z,98360.50
2024-01-06T05:28:46.484Z,98359.59
2024-01-06T05:31:12.707Z,98356.22
2024-01-06T05:33:39.280Z,98361.81
2024-01-06T05:36:05.495Z,98360.06
2024-01-06T05:38:31.669Z,98360.13
2024-01-06T05:40:58.144Z,98364.22
2024-01-06T05:43:24.347Z,98366.81
2024-01-06T05:45:50.685Z,98367.91
2024-01-06T05:48:16.977Z,98378.84
2024-01-06T05:50:43.316Z,98378.53
2024-01-06T05:53:09.588Z,98384.72
2024-01-06T05:55:35.864Z,98382.44
2024-01-06T05:58:02.260Z,98383.41
2024-01-06T06:00:28.504Z,98389.88
2024-01-06T06:02:54.698Z,98394.25
2024-01-06T06:05:20.851Z,98398.50
2024-01-06T06:07:47.038Z,98401.22
2024-01-06T06:10:13.354Z,98400.28
2024-01-06T06:12:39.733Z,98405.84
2024-01-06T06:15:06.179Z,98410.38
2024-01-06T06:17:32.512Z,98409.75
2024-01-06T06:19:58.802Z,98420.25
2024-01-06T06:22:25.017Z,98417.31
2024-01-06T06:24:51.444Z,98419.31
2024-01-06T06:27:17.901Z,98425.16
2024-01-06T06:29:44.189Z,98427.47
2024-01-06T06:32:10.347Z,98431.09
2024-01-06T06:34:36.552Z,98429.97
2024-01-06T06:37:02.868Z,98440.69
2024-01-06T06:39:29.037Z,98446.09
2024-01-06T06:41:55.267Z,98447.72
2024-01-06T06:44:26.052Z,98448.84
2024-01-06T06:46:52.332Z,98445.50
2024-01-06T06:49:18.568Z,98468.50
2024-01-06T06:51:44.886Z,98471.72
2024-01-06T06:54:11.202Z,98472.97
2024-01-06T06:56:37.427Z,98465.31
2024-01-06T06:59:03.869Z,98479.78
2024-01-06T07:01:32.259Z,98478.72
2024-01-06T07:03:59.774Z,98480.97
2024-01-06T07:06:26.020Z,98479.63
2024-01-06T07:08:52.464Z,98488.97
2024-01-06T07:11:18.610Z,98494.41
2024-01-06T07:13:44.768Z,98501.06
2024-01-06T07:16:17.999Z,98501.88
2024-01-06T07:18:45.840Z,98510.00
2024-01-06T07:21:12.398Z,98509.25
2024-01-06T07:23:38.590Z,98513.78
2024-01-06T07:26:04.851Z,98514.16
2024-01-06T07:28:31.147Z,98521.91
2024-01-06T07:30:57.520Z,98520.47
2024-01-06T07:33:23.846Z,98523.25
2024-01-06T07:35:50.082Z,98529.19
2024-01-06T07:38:16.288Z,98536.19
2024-01-06T07:40:42.526Z,98529.81
2024-01-06T07:43:08.724Z,98541.31
2024-01-06T07:45:35.154Z,98545.16
2024-01-06T07:48:01.498Z,98538.72
2024-01-06T07:50:27.718Z,98545.72
2024-01-06T07:52:54.143Z,98554.03
2024-01-06T07:55:20.405Z,98554.59
2024-01-06T07:57:46.575Z,98558.91
2024-01-06T08:00:12.802Z,98559.00
2024-01-06T08:02:39.308Z,98554.69
2024-01-06T08:05:05.486Z,98579.69
2024-01-06T08:07:31.663Z,98572.94
2024-01-06T08:09:57.899Z,98577.66
2024-01-06T08:12:24.170Z,98591.00
2024-01-06T08:14:50.381Z,98588.16
2024-01-06T08:17:19.505Z,98595.84
2024-01-06T08:19:46.162Z,98601.59
2024-01-06T08:22:12.385Z,98603.69
2024-01-06T08:24:38.578Z,98610.22
2024-01-06T08:27:04.852Z,98620.16
2024-01-06T08:29:31.282Z,98622.63
2024-01-06T08:31:57.660Z,98625.81
2024-01-06T08:34:24.390Z,98623.44
2024-01-06T08:36:50.682Z,98633.28
2024-01-06T08:39:16.996Z,98637.50
2024-01-06T08:41:43.528Z,98636.69
2024-01-06T08:44:09.695Z,98636.91
2024-01-06T08:46:35.905Z,98642.41
2024-01-06T08:49:02.181Z,98647.66
2024-01-06T08:51:28.492Z,98652.69
2024-01-06T08:53:55.063Z,98658.03
2024-01-06T08:56:21.256Z,98664.09
2024-01-06T08:58:47.410Z,98672.91
2024-01-06T09:01:13.719Z,98666.72
2024-01-06T09:03:40.190Z,98663.56
2024-01-06T09:06:06.511Z,98675.03
2024-01-06T09:08:32.827Z,98672.38
2024-01-06T09:10:58.993Z,98681.00
2024-01-06T09:13:25.142Z,98688.06
2024-01-06T09:15:51.323Z,98686.53
2024-01-06T09:18:17.743Z,98694.00
2024-01-06T09:20:44.304Z,98698.44
2024-01-06T09:23:10.453Z,98695.63
2024-01-06T09:25:36.894Z,98704.03
2024-01-06T09:28:03.103Z,98698.03
2024-01-06T09:30:29.443Z,98705.09
2024-01-06T09:32:55.706Z,98707.09
2024-01-06T09:35:21.987Z,98711.75
2024-01-06T09:37:48.194Z,98720.28
2024-01-06T09:40:14.382Z,98719.00
2024-01-06T09:42:40.597Z,98732.00
2024-01-06T09:45:06.842Z,98730.84
2024-01-06T09:47:33.331Z,98737.72
2024-01-06T09:49:59.559Z,98743.03
2024-01-06T09:52:25.993Z,98747.22
2024-01-06T09:54:52.486Z,98747.72
2024-01-06T09:57:18.840Z,98747.72
2024-01-06T09:59:45.302Z,98755.72
2024-01-06T10:02:11.495Z,98757.84
2024-01-06T10:04:37.862Z,98760.66
2024-01-06T10:07:04.360Z,98773.44
2024-01-06T10:09:30.637Z,98773.97
2024-01-06T10:11:56.867Z,98765.38
2024-01-06T10:14:23.031Z,98765.56
2024-01-06T10:16:49.475Z,98769.91
2024-01-06T10:19:15.713Z,98769.03
2024-01-06T10:21:42.235Z,98782.63
2024-01-06T10:24:08.501Z,98778.78
2024-01-06T10:26:34.697Z,98776.63
2024-01-06T10:29:00.836Z,98774.03
2024-01-06T10:31:27.065Z,98774.25
2024-01-06T10:33:53.520Z,98783.69
2024-01-06T10:36:19.791Z,98781.50
2024-01-06T10:38:45.976Z,98779.09
2024-01-06T10:41:12.130Z,98780.41
2024-01-06T10:43:38.289Z,98779.38
2024-01-06T10:46:04.706Z,98791.56
2024-01-06T10:48:30.970Z,98784.75
2024-01-06T10:50:57.210Z,98785.34
2024-01-06T10:53:23.414Z,98789.59
2024-01-06T10:55:50.532Z,98790.66
2024-01-06T10:58:17.787Z,98792.50
2024-01-06T11:00:44.261Z,98786.56
2024-01-06T11:03:10.534Z,98794.47
2024-01-06T11:05:36.831Z,98799.09
2024-01-06T11:08:03.162Z,98797.72
2024-01-06T11:10:29.377Z,98800.75
2024-01-06T11:12:55.586Z,98797.34
2024-01-06T11:15:21.850Z,98796.88
2024-01-06T11:17:48.381Z,98806.47
2024-01-06T11:20:14.807Z,98796.53
2024-01-06T11:22:41.429Z,98794.72
2024-01-06T11:25:07.758Z,98793.03
2024-01-06T11:27:34.003Z,98795.84
2024-01-06T11:30:02.996Z,98789.50
2024-01-06T11:32:29.223Z,98791.00
2024-01-06T11:34:55.514Z,98796.91
2024-01-06T11:37:21.724Z,98795.13
2024-01-06T11:39:47.924Z,98801.31
2024-01-06T11:42:14.136Z,98803.50
2024-01-06T11:44:40.315Z,98805.44
2024-01-06T11:47:06.494Z,98806.28
2024-01-06T11:49:32.711Z,98808.34
2024-01-06T11:51:58.993Z,98808.03
2024-01-06T11:54:25.231Z,98808.78
2024-01-06T11:56:51.651Z,98808.72
2024-01-06T11:59:18.084Z,98806.41
2024-01-06T12:01:44.367Z,98809.50
2024-01-06T12:04:10.617Z,98813.69
2024-01-06T12:06:36.923Z,98802.25
2024-01-06T12:09:03.146Z,98805.56
2024-01-06T12:11:29.340Z,98813.00
2024-01-06T12:13:55.511Z,98805.00
2024-01-06T12:16:21.682Z,98805.78
2024-01-06T12:18:48.203Z,98802.56
2024-01-06T12:21:14.721Z,98809.13
2024-01-06T12:23:40.876Z,98807.88
2024-01-06T12:26:07.080Z,98807.78
2024-01-06T12:28:33.465Z,98806.56
2024-01-06T12:30:59.707Z,98803.56
2024-01-06T12:33:26.386Z,98807.09
2024-01-06T12:35:52.609Z,98810.38
2024-01-06T12:38:18.765Z,98808.88
2024-01-06T12:40:44.946Z,98817.31
2024-01-06T12:43:11.342Z,98821.81
2024-01-06T12:45:37.557Z,98836.31
2024-01-06T12:48:03.945Z,98823.13
2024-01-06T12:50:30.352Z,98826.88
2024-01-06T12:52:56.532Z,98832.44
2024-01-06T12:55:22.904Z,98844.59
2024-01-06T12:57:49.154Z,98841.13
2024-01-06T13:00:15.443Z,98851.22
2024-01-06T13:02:41.677Z,98848.34
2024-01-06T13:05:07.944Z,98852.53
2024-01-06T13:07:34.161Z,98851.31
2024-01-06T13:10:00.553Z,98853.00
2024-01-06T13:12:26.767Z,98855.47
2024-01-06T13:14:53.219Z,98847.47
2024-01-06T13:17:19.752Z,98861.16
2024-01-06T13:19:45.950Z,98859.31
2024-01-06T13:22:12.390Z,98859.75
2024-01-06T13:24:38.594Z,98860.19
2024-01-06T13:27:04.768Z,98855.59
2024-01-06T13:29:30.914Z,98862.06
2024-01-06T13:31:57.407Z,98858.75
2024-01-06T13:34:24.023Z,98863.19
2024-01-06T13:36:50.292Z,98864.38
2024-01-06T13:39:16.556Z,98875.91
2024-01-06T13:41:42.833Z,98877.72
2024-01-06T13:44:09.038Z,98885.44
2024-01-06T13:46:35.200Z,98880.53
2024-01-06T13:49:01.473Z,98885.78
2024-01-06T13:51:27.677Z,98887.50
2024-01-06T13:53:54.067Z,98884.63
2024-01-06T13:56:20.240Z,98891.31
2024-01-06T13:58:46.391Z,98887.38
2024-01-06T14:01:12.997Z,98895.19
2024-01-06T14:03:39.312Z,98898.34
2024-01-06T14:06:05.647Z,98902.00
2024-01-06T14:08:31.894Z,98906.94
2024-01-06T14:10:58.054Z,98905.22
2024-01-06T14:13:24.232Z,98907.94
2024-01-06T14:15:50.545Z,98915.28
2024-01-06T14:18:16.856Z,98911.63
2024-01-06T14:20:43.106Z,98914.66
2024-01-06T14:23:09.287Z,98919.09
2024-01-06T14:25:35.503Z,98923.84
2024-01-06T14:28:01.708Z,98929.13
2024-01-06T14:30:28.386Z,98933.97
2024-01-06T14:32:54.784Z,98933.16
2024-01-06T14:35:20.969Z,98937.38
2024-01-06T14:37:47.392Z,98942.47
2024-01-06T14:40:13.590Z,98945.41
2024-01-06T14:42:39.809Z,98949.84
2024-01-06T14:45:06.258Z,98953.16
2024-01-06T14:47:32.469Z,98949.56
2024-01-06T14:49:58.766Z,98962.53
2024-01-06T14:52:25.056Z,98959.19
2024-01-06T14:54:51.309Z,98964.91
2024-01-06T14:57:17.802Z,98962.59
2024-01-06T14:59:44.286Z,98969.22
2024-01-06T15:02:10.531Z,98972.00
2024-01-06T15:04:36.747Z,98966.41
2024-01-06T15:07:03.017Z,98966.38
2024-01-06T15:09:29.370Z,98975.91
2024-01-06T15:11:55.564Z,98982.63
2024-01-06T15:14:21.800Z,98985.09
2024-01-06T15:16:48.192Z,98983.66
2024-01-06T15:19:14.652Z,98987.16
2024-01-06T15:21:40.860Z,98985.50
2024-01-06T15:24:07.098Z,98989.66
2024-01-06T15:26:33.308Z,98996.31
2024-01-06T15:28:59.583Z,98999.31
2024-01-06T15:31:26.095Z,98999.56
2024-01-06T15:33:52.489Z,98997.78
2024-01-06T15:36:18.761Z,99018.44
2024-01-06T15:38:45.123Z,99025.56
2024-01-06T15:41:11.565Z,99026.66
2024-01-06T15:43:37.988Z,99021.69
2024-01-06T15:46:04.247Z,99030.56
2024-01-06T15:48:30.529Z,99036.59
2024-01-06T15:50:56.747Z,99044.31
2024-01-06T15:53:22.937Z,99049.59
2024-01-06T15:55:49.115Z,99045.00
2024-01-06T15:58:15.281Z,99049.16
2024-01-06T16:00:41.531Z,99057.41
2024-01-06T16:03:07.977Z,99050.25
2024-01-06T16:05:34.451Z,99059.91
2024-01-06T16:08:00.635Z,99056.88
2024-01-06T16:10:26.786Z,99067.34
2024-01-06T16:12:53.274Z,99065.69
2024-01-06T16:15:19.539Z,99069.56
2024-01-06T16:17:45.832Z,99071.75
2024-01-06T16:20:12.469Z,99074.78
2024-01-06T16:22:38.668Z,99073.44
2024-01-06T16:25:04.979Z,99074.22
2024-01-06T16:27:31.539Z,99082.78
2024-01-06T16:29:57.697Z,99067.91
2024-01-06T16:32:23.886Z,99082.22
2024-01-06T16:34:50.151Z,99088.03
2024-01-06T16:37:16.448Z,99060.75
2024-01-06T16:39:42.642Z,99085.81
2024-01-06T16:42:09.067Z,99080.00
2024-01-06T16:44:35.520Z,99086.94
2024-01-06T16:47:01.717Z,99090.22
2024-01-06T16:49:27.890Z,99090.47
2024-01-06T16:51:54.156Z,99097.94
2024-01-06T16:54:20.382Z,99097.09
2024-01-06T16:56:46.557Z,99096.81
2024-01-06T16:59:16.537Z,99097.63
2024-01-06T17:01:43.386Z,99104.28
2024-01-06T17:04:09.637Z,99104.00
2024-01-06T17:06:35.913Z,99107.28
2024-01-06T17:09:02.130Z,99099.03
2024-01-06T17:11:28.313Z,99098.19
2024-01-06T17:13:54.455Z,99105.66
2024-01-06T17:16:20.637Z,99105.91
2024-01-06T17:18:47.121Z,99103.44
2024-01-06T17:21:13.424Z,99106.47
2024-01-06T17:23:39.575Z,99108.41
2024-01-06T17:26:05.804Z,99102.88
2024-01-06T17:28:32.027Z,99115.03
2024-01-06T17:30:58.270Z,99115.56
2024-01-06T17:33:24.898Z,99120.78
2024-01-06T17:35:51.237Z,99118.88
2024-01-06T17:38:17.534Z,99123.56
2024-01-06T17:40:43.854Z,99128.25
2024-01-06T17:43:10.283Z,99132.38
2024-01-06T17:45:36.582Z,99129.59
2024-01-06T17:48:02.914Z,99125.75
2024-01-06T17:50:29.274Z,99132.34
2024-01-06T17:52:55.488Z,99134.03
2024-01-06T17:55:21.897Z,99137.88
2024-01-06T17:57:48.219Z,99135.41
2024-01-06T18:00:14.432Z,99135.94
2024-01-06T18:02:40.648Z,99142.81
2024-01-06T18:05:07.208Z,99134.28
2024-01-06T18:07:33.480Z,99142.00
2024-01-06T18:09:59.882Z,99143.38
2024-01-06T18:12:26.449Z,99133.75
2024-01-06T18:14:52.647Z,99147.50
2024-01-06T18:17:18.894Z,99151.09
2024-01-06T18:19:45.239Z,99156.59
2024-01-06T18:22:11.578Z,99154.13
2024-01-06T18:24:37.855Z,99158.28
2024-01-06T18:27:04.033Z,99156.91
2024-01-06T18:29:30.340Z,99161.03
2024-01-06T18:31:56.516Z,99164.59
2024-01-06T18:34:23.003Z,99169.84
2024-01-06T18:36:49.292Z,99172.31
2024-01-06T18:39:15.490Z,99174.53
2024-01-06T18:41:41.762Z,99173.44
2024-01-06T18:44:07.930Z,99178.94
2024-01-06T18:46:34.350Z,99179.19
2024-01-06T18:49:00.605Z,99187.47
2024-01-06T18:51:26.870Z,99185.56
2024-01-06T18:53:53.094Z,99189.97
2024-01-06T18:56:19.295Z,99195.22
2024-01-06T18:58:45.455Z,99195.50
2024-01-06T19:01:11.738Z,99190.25
2024-01-06T19:03:37.983Z,99198.22
2024-01-06T19:06:04.212Z,99200.72
2024-01-06T19:08:30.433Z,99201.00
2024-01-06T19:10:56.594Z,99203.69
2024-01-06T19:13:22.785Z,99205.94
2024-01-06T19:15:48.968Z,99207.31
2024-01-06T19:18:15.434Z,99197.41
2024-01-06T19:20:41.999Z,99209.25
2024-01-06T19:23:09.951Z,99212.84
2024-01-06T19:25:36.733Z,99214.19
2024-01-06T19:28:03.115Z,99220.53
2024-01-06T19:30:29.375Z,99225.22
2024-01-06T19:32:55.663Z,99219.72
2024-01-06T19:35:21.839Z,99223.28
2024-01-06T19:37:48.039Z,99216.97
2024-01-06T19:40:14.278Z,99215.34
2024-01-06T19:42:40.650Z,99216.72
2024-01-06T19:45:06.900Z,99217.53
2024-01-06T19:47:33.140Z,99217.56
2024-01-06T19:49:59.465Z,99219.47
2024-01-06T19:52:25.971Z,99221.66
2024-01-06T19:54:52.480Z,99233.50
2024-01-06T19:57:18.976Z,99233.53
2024-01-06T19:59:45.216Z,99234.63
2024-01-06T20:02:11.363Z,99229.13
2024-01-06T20:04:37.733Z,99222.22
2024-01-06T20:07:04.074Z,99229.13
2024-01-06T20:09:30.346Z,99234.34
2024-01-06T20:11:56.529Z,99226.09
2024-01-06T20:14:22.700Z,99233.53
2024-01-06T20:16:48.878Z,99235.16
2024-01-06T20:19:15.156Z,99244.78
2024-01-06T20:21:41.385Z,99246.16
2024-01-06T20:24:07.824Z,99245.34
2024-01-06T20:26:34.090Z,99248.34
2024-01-06T20:29:00.510Z,99251.38
2024-01-06T20:31:26.800Z,99247.53
2024-01-06T20:33:53.085Z,99245.06
2024-01-06T20:36:19.628Z,99247.25
2024-01-06T20:38:45.894Z,99251.41
2024-01-06T20:41:12.346Z,99250.56
2024-01-06T20:43:38.672Z,99253.84
2024-01-06T20:46:05.135Z,99254.69
2024-01-06T20:48:31.549Z,99256.06
2024-01-06T20:50:57.775Z,99259.38
2024-01-06T20:53:23.940Z,99261.28
2024-01-06T20:55:50.149Z,99274.78
2024-01-06T20:58:16.408Z,99272.56
2024-01-06T21:00:42.784Z,99276.72
2024-01-06T21:03:09.283Z,99268.47
2024-01-06T21:05:35.434Z,99269.84
2024-01-06T21:08:01.610Z,99262.72
2024-01-06T21:10:27.802Z,99261.28
2024-01-06T21:12:54.051Z,99258.88
2024-01-06T21:15:20.372Z,99264.63
2024-01-06T21:17:46.627Z,99253.88
2024-01-06T21:20:12.803Z,99267.13
2024-01-06T21:22:39.087Z,99270.41
2024-01-06T21:25:05.421Z,99273.47
2024-01-06T21:27:31.669Z,99267.41
2024-01-06T21:29:58.128Z,99279.25
2024-01-06T21:32:24.493Z,99277.31
2024-01-06T21:34:50.749Z,99282.44
2024-01-06T21:37:17.226Z,99284.41
2024-01-06T21:39:43.479Z,99285.78
2024-01-06T21:42:09.686Z,99288.31
2024-01-06T21:44:35.908Z,99284.69
2024-01-06T21:47:04.124Z,99288.03
2024-01-06T21:49:30.980Z,99285.06
2024-01-06T21:51:57.305Z,99293.06
2024-01-06T21:54:23.543Z,99287.56
2024-01-06T21:56:49.924Z,99284.81
2024-01-06T21:59:16.145Z,99281.50
2024-01-06T22:01:42.578Z,99283.97
2024-01-06T22:04:09.168Z,99283.41
2024-01-06T22:06:35.389Z,99297.16
2024-01-06T22:09:10.496Z,99293.59
2024-01-06T22:11:38.978Z,99291.97
2024-01-06T22:14:05.192Z,99303.75
2024-01-06T22:16:31.397Z,99300.16
2024-01-06T22:18:57.712Z,99304.56
2024-01-06T22:21:23.987Z,99302.63
2024-01-06T22:23:50.167Z,99302.34
2024-01-06T22:26:16.410Z,99301.25
2024-01-06T22:28:42.650Z,99301.81
2024-01-06T22:31:09.015Z,99302.09
2024-01-06T22:33:35.281Z,99304.03
2024-01-06T22:36:01.506Z,99302.66
2024-01-06T22:38:30.489Z,99305.38
2024-01-06T22:40:59.455Z,99304.31
2024-01-06T22:43:25.952Z,99300.75
2024-01-06T22:45:52.147Z,99300.19
2024-01-06T22:48:18.432Z,99300.44
2024-01-06T22:50:44.657Z,99306.19
2024-01-06T22:53:11.065Z,99313.94
2024-01-06T22:55:37.278Z,99311.41
2024-01-06T22:58:03.577Z,99315.03
2024-01-06T23:00:30.064Z,99317.47
2024-01-06T23:02:56.547Z,99318.00
2024-01-06T23:05:22.702Z,99323.59
2024-01-06T23:07:48.870Z,99321.91
2024-01-06T23:10:15.088Z,99315.31
2024-01-06T23:12:41.255Z,99323.03
2024-01-06T23:15:07.700Z,99324.13
2024-01-06T23:17:33.888Z,99327.91
2024-01-06T23:20:00.419Z,99332.66
2024-01-06T23:22:26.606Z,99336.25
2024-01-06T23:24:52.839Z,99337.91
2024-01-06T23:27:19.029Z,99338.69
2024-01-06T23:29:45.291Z,99331.69
2024-01-06T23:32:11.526Z,99343.75
2024-01-06T23:34:42.623Z,99349.81
2024-01-06T23:37:09.655Z,99353.06
2024-01-06T23:39:35.849Z,99357.22
2024-01-06T23:42:01.998Z,99360.59
2024-01-06T23:44:28.142Z,99351.81
2024-01-06T23:46:54.306Z,99358.13
2024-01-06T23:49:20.783Z,99360.38
2024-01-06T23:51:47.038Z,99364.50
2024-01-06T23:54:13.453Z,99364.13
2024-01-06T23:56:39.771Z,99356.09
2024-01-06T23:59:05.914Z,99374.09
